Time;durP1;ratioP1;P1;durP2;ratioP2;P2;SDS_P1;SDS_P2;PMS_P1;PMS_P2;Temp;Humidity;BMP_temperature;BMP_pressure;BME280_temperature;BME280_humidity;BME280_pressure;Samples;Min_cycle;Max_cycle;Signal;HPM_P1;HPM_P2
2023/05/01 00:00:13;;;;;;;6.78;3.38;;;;;;;11.22;100.00;101568.34;5257982;28;20366;-67
2023/05/01 00:02:44;;;;;;;6.68;3.10;;;;;;;11.25;100.00;101563.66;5255423;28;20049;-66
2023/05/01 00:05:16;;;;;;;7.13;3.47;;;;;;;11.22;100.00;101568.34;5251285;28;20034;-67
2023/05/01 00:07:47;;;;;;;5.85;3.40;;;;;;;11.31;100.00;101563.25;5252702;28;20059;-67
2023/05/01 00:10:19;;;;;;;5.97;3.00;;;;;;;11.26;100.00;101557.38;5254190;28;20035;-67
2023/05/01 00:12:50;;;;;;;7.25;3.28;;;;;;;11.28;100.00;101547.44;5262298;28;20054;-67
2023/05/01 00:15:22;;;;;;;6.05;3.58;;;;;;;11.24;100.00;101542.38;5262593;28;20109;-67
2023/05/01 00:17:54;;;;;;;7.10;3.08;;;;;;;11.23;100.00;101541.53;5262397;28;20028;-67
2023/05/01 00:20:27;;;;;;;6.60;3.28;;;;;;;11.22;100.00;101549.66;5256387;28;20017;-67
2023/05/01 00:22:58;;;;;;;5.20;2.90;;;;;;;11.19;100.00;101548.06;5255617;28;20028;-67
2023/05/01 00:25:30;;;;;;;4.72;3.08;;;;;;;11.29;100.00;101537.59;5255302;28;20056;-66
2023/05/01 00:28:02;;;;;;;4.43;3.00;;;;;;;11.22;100.00;101534.50;5252624;28;20048;-67
2023/05/01 00:30:33;;;;;;;6.45;2.90;;;;;;;11.17;100.00;101532.13;5249918;28;20246;-67
2023/05/01 00:33:05;;;;;;;5.40;3.28;;;;;;;11.12;100.00;101530.72;5252570;28;20494;-67
2023/05/01 00:35:36;;;;;;;6.03;2.95;;;;;;;11.21;100.00;101527.44;5252773;28;20165;-67
2023/05/01 00:38:07;;;;;;;7.28;3.15;;;;;;;11.22;100.00;101517.59;5258674;28;20387;-67
2023/05/01 00:40:43;;;;;;;4.90;3.00;;;;;;;11.21;100.00;101522.09;5251865;28;20119;-67
2023/05/01 00:43:14;;;;;;;5.18;2.95;;;;;;;11.19;100.00;101519.50;5272280;28;20033;-67
2023/05/01 00:45:46;;;;;;;5.47;2.97;;;;;;;11.10;100.00;101514.81;5251296;28;20043;-67
2023/05/01 00:48:17;;;;;;;7.45;2.95;;;;;;;11.25;100.00;101512.06;5253531;28;20033;-67
2023/05/01 00:50:49;;;;;;;5.72;2.70;;;;;;;11.26;100.00;101508.44;5256175;28;20048;-67
2023/05/01 00:53:23;;;;;;;6.15;3.08;;;;;;;11.19;100.00;101508.84;5255968;28;20059;-67
2023/05/01 00:55:56;;;;;;;7.43;3.47;;;;;;;11.15;100.00;101510.00;5258434;28;20387;-67
2023/05/01 00:58:28;;;;;;;6.43;3.00;;;;;;;11.21;100.00;101499.88;5258370;28;20031;-67
2023/05/01 01:01:00;;;;;;;6.43;3.40;;;;;;;11.12;100.00;101498.66;5256491;28;20024;-67
2023/05/01 01:03:31;;;;;;;5.88;3.47;;;;;;;11.12;100.00;101493.34;5257968;28;20048;-67
2023/05/01 01:06:12;;;;;;;5.57;3.33;;;;;;;11.18;100.00;101500.94;5251502;28;20031;-67
2023/05/01 01:09:11;;;;;;;9.63;3.47;;;;;;;11.17;100.00;101486.72;5253814;28;20033;-67
2023/05/01 01:12:09;;;;;;;6.32;3.40;;;;;;;11.15;100.00;101485.13;5256173;28;20036;-67
2023/05/01 01:14:54;;;;;;;6.45;3.20;;;;;;;11.19;100.00;101483.94;5260671;28;20037;-67
2023/05/01 01:17:43;;;;;;;5.85;3.47;;;;;;;11.11;100.00;101483.63;5255419;28;20013;-67
2023/05/01 01:20:22;;;;;;;5.72;3.30;;;;;;;11.14;100.00;101473.59;5252967;28;20104;-67
2023/05/01 01:23:32;;;;;;;6.50;3.60;;;;;;;11.16;100.00;101482.34;5254148;28;20032;-67
2023/05/01 01:26:30;;;;;;;6.32;3.50;;;;;;;11.05;100.00;101468.88;5252056;28;20432;-66
2023/05/01 01:29:20;;;;;;;7.53;3.63;;;;;;;11.13;100.00;101466.53;5261021;28;20051;-67
2023/05/01 01:32:33;;;;;;;6.90;3.58;;;;;;;11.12;100.00;101456.81;5257476;28;20035;-67
2023/05/01 01:35:09;;;;;;;5.45;3.80;;;;;;;11.14;100.00;101459.34;5245929;28;20110;-67
2023/05/01 01:38:02;;;;;;;7.95;3.50;;;;;;;11.13;100.00;101455.00;5260536;28;20033;-67
2023/05/01 01:40:55;;;;;;;7.13;3.63;;;;;;;11.16;100.00;101447.63;5257824;28;20363;-66
2023/05/01 01:43:32;;;;;;;5.57;3.55;;;;;;;11.05;100.00;101442.16;5255670;28;20028;-67
2023/05/01 01:46:07;;;;;;;8.35;3.88;;;;;;;11.01;100.00;101439.81;5256300;28;20032;-67
2023/05/01 01:48:44;;;;;;;6.80;3.50;;;;;;;10.95;100.00;101438.44;5257035;28;20028;-67
2023/05/01 01:51:21;;;;;;;8.07;4.00;;;;;;;11.05;100.00;101436.84;5255479;28;20479;-67
2023/05/01 01:53:55;;;;;;;9.32;4.00;;;;;;;10.96;100.00;101432.13;5254112;28;20044;-66
2023/05/01 01:56:28;;;;;;;9.45;4.88;;;;;;;10.92;100.00;101428.81;5254583;28;20039;-66
2023/05/01 01:59:01;;;;;;;7.78;4.00;;;;;;;10.92;100.00;101425.28;5258073;28;20510;-67
2023/05/01 02:01:33;;;;;;;6.85;4.05;;;;;;;10.94;100.00;101424.22;5258608;28;20028;-67
2023/05/01 02:04:07;;;;;;;6.60;3.60;;;;;;;10.96;100.00;101419.63;5251120;28;20557;-67
2023/05/01 02:06:40;;;;;;;6.70;4.07;;;;;;;10.93;100.00;101426.97;5253551;28;20028;-66
2023/05/01 02:09:17;;;;;;;6.47;3.80;;;;;;;10.91;100.00;101423.56;5251337;28;20013;-66
2023/05/01 02:11:50;;;;;;;6.00;3.90;;;;;;;10.91;100.00;101418.22;5252273;28;20432;-67
2023/05/01 02:14:25;;;;;;;7.63;4.55;;;;;;;10.93;100.00;101410.97;5256856;28;20085;-67
2023/05/01 02:16:57;;;;;;;6.70;4.28;;;;;;;10.90;100.00;101416.53;5250934;28;20017;-68
2023/05/01 02:19:31;;;;;;;7.93;4.00;;;;;;;10.90;100.00;101411.19;5254080;28;20030;-67
2023/05/01 02:22:04;;;;;;;7.53;4.35;;;;;;;11.01;100.00;101405.97;5251251;28;20025;-67
2023/05/01 02:24:38;;;;;;;6.53;3.75;;;;;;;10.84;100.00;101406.28;5253325;28;21011;-67
2023/05/01 02:27:34;;;;;;;6.15;3.80;;;;;;;10.94;100.00;101399.34;5253719;28;20510;-66
2023/05/01 02:30:07;;;;;;;8.73;4.45;;;;;;;10.94;100.00;101396.66;5252451;28;20033;-67
2023/05/01 02:32:38;;;;;;;8.05;4.35;;;;;;;10.77;100.00;101398.66;5262294;28;20040;-67
2023/05/01 02:35:10;;;;;;;7.03;4.10;;;;;;;10.86;100.00;101393.69;5253176;28;20086;-67
2023/05/01 02:37:41;;;;;;;5.47;4.03;;;;;;;10.81;100.00;101391.31;5252645;28;20040;-67
2023/05/01 02:40:14;;;;;;;6.70;3.97;;;;;;;10.87;100.00;101392.69;5262298;28;20387;-66
2023/05/01 02:42:48;;;;;;;7.93;4.50;;;;;;;10.77;100.00;101379.97;5262845;28;20036;-66
2023/05/01 02:45:22;;;;;;;7.25;4.28;;;;;;;10.79;100.00;101382.56;5257849;28;20166;-67
2023/05/01 02:47:58;;;;;;;5.43;4.13;;;;;;;10.77;100.00;101384.47;5259745;28;20036;-67
2023/05/01 02:50:30;;;;;;;8.77;4.53;;;;;;;10.80;100.00;101373.59;5260453;28;20333;-66
2023/05/01 02:53:02;;;;;;;7.63;4.28;;;;;;;10.82;100.00;101371.69;5263010;28;20056;-67
2023/05/01 02:55:34;;;;;;;8.18;4.50;;;;;;;10.74;100.00;101372.19;5261071;28;20633;-67
2023/05/01 02:58:06;;;;;;;7.45;4.63;;;;;;;10.83;100.00;101364.50;5256112;28;20021;-67
2023/05/01 03:00:37;;;;;;;6.35;4.13;;;;;;;10.81;100.00;101363.75;5257071;28;20082;-67
2023/05/01 03:03:09;;;;;;;10.38;4.40;;;;;;;10.71;100.00;101356.38;5260513;28;20041;-67
2023/05/01 03:05:40;;;;;;;8.55;4.28;;;;;;;10.68;100.00;101351.28;5261213;28;20033;-66
2023/05/01 03:08:12;;;;;;;9.45;5.05;;;;;;;10.65;100.00;101354.16;5255359;28;20036;-67
2023/05/01 03:10:43;;;;;;;6.97;4.55;;;;;;;10.78;100.00;101360.34;5260146;28;21312;-67
2023/05/01 03:13:15;;;;;;;7.20;4.50;;;;;;;10.75;100.00;101355.22;5258678;28;20039;-67
2023/05/01 03:15:47;;;;;;;8.50;4.43;;;;;;;10.75;100.00;101360.56;5262762;28;20021;-67
2023/05/01 03:18:18;;;;;;;10.82;4.50;;;;;;;10.67;100.00;101346.88;5260621;28;20743;-67
2023/05/01 03:20:52;;;;;;;9.15;4.65;;;;;;;10.64;100.00;101341.75;5258035;28;20033;-67
2023/05/01 03:23:24;;;;;;;8.45;4.50;;;;;;;10.61;100.00;101339.31;5263547;28;20024;-67
2023/05/01 03:25:56;;;;;;;7.22;4.53;;;;;;;10.63;100.00;101336.53;5256499;28;20561;-67
2023/05/01 03:28:27;;;;;;;9.10;4.85;;;;;;;10.63;100.00;101337.38;5261412;28;20020;-67
2023/05/01 03:30:59;;;;;;;9.52;5.45;;;;;;;10.64;100.00;101328.41;5260073;28;20105;-67
2023/05/01 03:33:30;;;;;;;6.35;4.40;;;;;;;10.57;100.00;101329.81;5261262;28;20097;-66
2023/05/01 03:36:04;;;;;;;9.35;4.82;;;;;;;10.59;100.00;101323.41;5255380;28;20036;-67
2023/05/01 03:38:35;;;;;;;8.40;4.57;;;;;;;10.55;100.00;101329.91;5259238;28;20032;-66
2023/05/01 03:41:07;;;;;;;9.85;4.72;;;;;;;10.52;100.00;101324.78;5257045;28;20040;-67
2023/05/01 03:43:39;;;;;;;6.78;3.92;;;;;;;10.54;100.00;101330.00;5258414;28;20029;-67
2023/05/01 03:46:10;;;;;;;7.18;4.53;;;;;;;10.58;100.00;101329.72;5257636;28;20054;-67
2023/05/01 03:48:42;;;;;;;9.93;4.40;;;;;;;10.48;100.00;101322.44;5257195;28;20082;-66
2023/05/01 03:51:16;;;;;;;9.55;4.75;;;;;;;10.53;100.00;101323.81;5258750;28;20051;-67
2023/05/01 03:53:47;;;;;;;8.10;4.93;;;;;;;10.51;100.00;101324.91;5250880;28;20081;-67
2023/05/01 03:56:18;;;;;;;10.18;4.85;;;;;;;10.54;100.00;101319.34;5250607;28;20093;-67
2023/05/01 03:58:51;;;;;;;7.40;4.57;;;;;;;10.56;100.00;101314.75;5257708;28;20046;-66
2023/05/01 04:01:22;;;;;;;8.15;4.65;;;;;;;10.45;100.00;101318.19;5254897;28;20032;-67
2023/05/01 04:03:53;;;;;;;9.00;5.03;;;;;;;10.46;100.00;101313.69;5256087;28;20049;-66
2023/05/01 04:06:25;;;;;;;8.05;5.10;;;;;;;10.55;100.00;101307.72;5248969;28;20050;-67
2023/05/01 04:08:57;;;;;;;8.88;5.00;;;;;;;10.44;100.00;101307.59;5251888;28;20017;-67
2023/05/01 04:11:29;;;;;;;6.97;4.88;;;;;;;10.49;100.00;101314.34;5250782;28;20032;-67
2023/05/01 04:14:00;;;;;;;9.10;5.45;;;;;;;10.50;100.00;101312.50;5257379;28;20032;-66
2023/05/01 04:16:32;;;;;;;8.40;5.20;;;;;;;10.51;100.00;101304.41;5253552;28;20406;-67
2023/05/01 04:19:03;;;;;;;8.73;5.38;;;;;;;10.41;100.00;101308.66;5250031;28;21091;-67
2023/05/01 04:21:35;;;;;;;8.55;5.30;;;;;;;10.40;100.00;101306.94;5256642;28;20052;-67
2023/05/01 04:24:06;;;;;;;8.18;5.38;;;;;;;10.35;100.00;101309.06;5259516;28;20529;-67
2023/05/01 04:26:38;;;;;;;8.15;5.38;;;;;;;10.37;100.00;101318.69;5255237;28;20028;-67
2023/05/01 04:29:09;;;;;;;9.05;5.43;;;;;;;10.35;100.00;101335.75;5260974;28;20032;-67
2023/05/01 04:31:42;;;;;;;11.60;5.65;;;;;;;10.31;100.00;101321.75;5266280;28;20895;-66
2023/05/01 04:34:13;;;;;;;10.65;5.50;;;;;;;10.32;100.00;101323.47;5263192;28;20024;-67
2023/05/01 04:36:45;;;;;;;8.27;5.03;;;;;;;10.27;100.00;101322.06;5255698;28;20062;-67
2023/05/01 04:39:16;;;;;;;10.55;5.30;;;;;;;10.39;100.00;101324.78;5257806;28;20024;-67
2023/05/01 04:41:48;;;;;;;8.73;5.50;;;;;;;10.30;100.00;101317.41;5251600;28;20024;-67
2023/05/01 04:44:19;;;;;;;9.27;4.90;;;;;;;10.37;100.00;101313.38;5249607;28;20074;-67
2023/05/01 04:46:50;;;;;;;12.38;5.53;;;;;;;10.35;100.00;101314.41;5263011;28;20056;-67
2023/05/01 04:49:22;;;;;;;9.57;5.40;;;;;;;10.40;100.00;101312.28;5255541;28;20251;-67
2023/05/01 04:51:53;;;;;;;10.45;5.78;;;;;;;10.33;100.00;101303.00;5250317;28;21439;-67
2023/05/01 04:54:25;;;;;;;9.70;5.75;;;;;;;10.36;100.00;101306.31;5252370;28;20029;-67
2023/05/01 04:56:56;;;;;;;14.23;6.68;;;;;;;10.34;100.00;101297.56;5258420;28;20170;-67
2023/05/01 04:59:27;;;;;;;8.50;5.10;;;;;;;10.38;100.00;101306.22;5253448;28;20031;-67
2023/05/01 05:01:59;;;;;;;10.10;5.70;;;;;;;10.37;100.00;101305.34;5254283;28;20087;-67
2023/05/01 05:04:30;;;;;;;9.68;5.85;;;;;;;10.40;100.00;101302.47;5258536;28;20051;-67
2023/05/01 05:07:02;;;;;;;11.10;6.00;;;;;;;10.48;100.00;101303.75;5256254;28;20024;-67
2023/05/01 05:09:33;;;;;;;10.10;6.00;;;;;;;10.39;100.00;101311.44;5254949;28;20032;-67
2023/05/01 05:12:04;;;;;;;10.40;6.30;;;;;;;10.42;100.00;101304.19;5253360;28;20024;-67
2023/05/01 05:14:36;;;;;;;12.52;6.10;;;;;;;10.48;100.00;101304.59;5261583;28;20033;-67
2023/05/01 05:17:08;;;;;;;10.85;6.30;;;;;;;10.40;100.00;101299.78;5260664;28;20023;-67
2023/05/01 05:19:40;;;;;;;10.23;6.00;;;;;;;10.52;100.00;101299.91;5260841;28;20039;-67
2023/05/01 05:22:11;;;;;;;10.43;5.63;;;;;;;10.48;100.00;101303.75;5266750;28;20029;-67
2023/05/01 05:24:43;;;;;;;11.00;6.70;;;;;;;10.46;100.00;101303.88;5263228;28;20024;-67
2023/05/01 05:27:15;;;;;;;9.23;6.53;;;;;;;10.57;100.00;101308.47;5268928;28;20486;-67
2023/05/01 05:29:46;;;;;;;11.65;7.00;;;;;;;10.51;100.00;101308.91;5268244;28;20395;-67
2023/05/01 05:32:18;;;;;;;14.07;6.88;;;;;;;10.48;100.00;101303.75;5265444;28;20021;-67
2023/05/01 05:34:49;;;;;;;13.05;6.95;;;;;;;10.55;100.00;101302.38;5274878;28;20409;-67
2023/05/01 05:37:20;;;;;;;10.65;6.63;;;;;;;10.57;100.00;101303.97;5269720;28;20023;-67
2023/05/01 05:39:52;;;;;;;12.52;6.70;;;;;;;10.65;100.00;101298.09;5268682;28;20078;-67
2023/05/01 05:42:23;;;;;;;12.30;6.97;;;;;;;10.75;100.00;101307.16;5266960;28;20024;-67
2023/05/01 05:44:55;;;;;;;11.68;7.00;;;;;;;10.74;100.00;101300.13;5273779;28;20466;-67
2023/05/01 05:47:26;;;;;;;13.80;7.00;;;;;;;10.70;100.00;101309.31;5275690;28;20544;-66
2023/05/01 05:49:57;;;;;;;15.27;7.93;;;;;;;10.78;100.00;101306.97;5262834;28;20394;-67
2023/05/01 05:52:29;;;;;;;10.95;7.35;;;;;;;10.84;100.00;101307.50;5266529;28;20032;-67
2023/05/01 05:55:00;;;;;;;14.50;7.45;;;;;;;10.94;100.00;101300.53;5270431;28;20093;-67
2023/05/01 05:57:33;;;;;;;12.80;6.95;;;;;;;10.99;100.00;101301.09;5265678;28;20036;-67
2023/05/01 06:00:05;;;;;;;10.00;6.88;;;;;;;11.05;100.00;101305.97;5265959;28;20063;-67
2023/05/01 06:02:36;;;;;;;10.75;6.68;;;;;;;11.07;100.00;101300.53;5268017;28;20016;-66
2023/05/01 06:05:09;;;;;;;13.57;7.43;;;;;;;11.10;100.00;101301.19;5264050;28;20024;-67
2023/05/01 06:07:41;;;;;;;11.63;7.05;;;;;;;11.12;100.00;101306.38;5273491;28;20024;-67
2023/05/01 06:10:12;;;;;;;8.82;6.43;;;;;;;11.13;100.00;101298.28;5278928;28;20394;-67
2023/05/01 06:12:43;;;;;;;11.73;6.88;;;;;;;11.23;100.00;101297.63;5272288;28;20440;-67
2023/05/01 06:15:15;;;;;;;12.27;6.60;;;;;;;11.29;100.00;101295.34;5266182;28;20494;-67
2023/05/01 06:17:47;;;;;;;11.63;7.43;;;;;;;11.28;100.00;101298.16;5267851;28;20072;-67
2023/05/01 06:20:18;;;;;;;8.57;6.75;;;;;;;11.37;100.00;101302.78;5261737;28;20028;-67
2023/05/01 06:22:50;;;;;;;10.48;6.82;;;;;;;11.46;100.00;101295.94;5269932;28;20376;-67
2023/05/01 06:25:25;;;;;;;14.32;7.45;;;;;;;11.42;100.00;101300.66;5269121;28;20024;-67
2023/05/01 06:27:56;;;;;;;12.90;7.90;;;;;;;11.48;100.00;101294.84;5269635;28;20108;-67
2023/05/01 06:30:28;;;;;;;11.02;7.63;;;;;;;11.52;100.00;101300.84;5274254;28;20027;-67
2023/05/01 06:32:59;;;;;;;10.57;7.07;;;;;;;11.61;100.00;101296.66;5273675;28;20058;-67
2023/05/01 06:35:31;;;;;;;10.35;7.40;;;;;;;11.63;100.00;101297.38;5270560;28;20548;-67
2023/05/01 06:38:02;;;;;;;13.00;8.23;;;;;;;11.75;100.00;101296.47;5272229;28;20029;-67
2023/05/01 06:40:34;;;;;;;12.50;7.80;;;;;;;11.76;100.00;101288.34;5272813;28;20038;-67
2023/05/01 06:43:05;;;;;;;11.50;7.68;;;;;;;11.96;100.00;101294.88;5271519;28;20060;-67
2023/05/01 06:45:38;;;;;;;11.70;8.20;;;;;;;11.96;100.00;101292.22;5272436;28;20024;-67
2023/05/01 06:48:10;;;;;;;9.50;7.18;;;;;;;11.96;100.00;101289.53;5271723;28;20765;-67
2023/05/01 06:50:41;;;;;;;13.05;7.65;;;;;;;12.14;100.00;101286.47;5270345;28;20036;-67
2023/05/01 06:53:13;;;;;;;11.35;7.75;;;;;;;12.12;100.00;101285.72;5271048;28;20025;-67
2023/05/01 06:55:44;;;;;;;13.63;7.25;;;;;;;12.23;100.00;101291.09;5265950;28;20028;-67
2023/05/01 06:58:16;;;;;;;13.23;8.25;;;;;;;12.24;100.00;101286.63;5263017;28;20029;-67
2023/05/01 07:00:47;;;;;;;11.85;7.10;;;;;;;12.34;100.00;101296.47;5269740;28;20028;-67
2023/05/01 07:03:18;;;;;;;9.50;7.70;;;;;;;12.43;100.00;101288.72;5270642;28;20120;-67
2023/05/01 07:05:50;;;;;;;14.40;7.60;;;;;;;12.48;100.00;101289.22;5269909;28;20036;-67
2023/05/01 07:08:23;;;;;;;12.45;8.20;;;;;;;12.56;100.00;101289.47;5272407;28;20024;-67
2023/05/01 07:10:54;;;;;;;11.18;7.57;;;;;;;12.63;100.00;101287.16;5270513;28;20075;-67
2023/05/01 07:13:25;;;;;;;12.40;7.60;;;;;;;12.72;100.00;101287.28;5268110;28;20035;-67
2023/05/01 07:15:57;;;;;;;14.65;8.10;;;;;;;12.90;100.00;101287.66;5271462;28;20029;-67
2023/05/01 07:18:28;;;;;;;13.38;7.25;;;;;;;12.91;100.00;101283.19;5271261;28;20020;-67
2023/05/01 07:21:00;;;;;;;11.90;8.00;;;;;;;13.05;100.00;101284.75;5267682;28;20060;-67
2023/05/01 07:23:31;;;;;;;12.00;7.65;;;;;;;13.13;100.00;101283.16;5269742;28;20066;-67
2023/05/01 07:26:03;;;;;;;13.57;7.95;;;;;;;13.20;100.00;101278.16;5269568;28;20028;-67
2023/05/01 07:28:34;;;;;;;14.13;7.70;;;;;;;13.30;100.00;101284.50;5271079;28;20084;-67
2023/05/01 07:31:08;;;;;;;13.23;7.72;;;;;;;13.28;100.00;101283.75;5269224;28;20115;-67
2023/05/01 07:33:40;;;;;;;10.85;7.18;;;;;;;13.40;100.00;101284.59;5275503;28;20059;-67
2023/05/01 07:36:12;;;;;;;13.40;7.65;;;;;;;13.43;100.00;101295.09;5275065;28;20055;-67
2023/05/01 07:38:44;;;;;;;13.43;7.28;;;;;;;13.53;100.00;101289.81;5272702;28;20024;-67
2023/05/01 07:41:15;;;;;;;14.82;7.47;;;;;;;13.65;100.00;101287.94;5270952;28;20593;-67
2023/05/01 07:43:47;;;;;;;11.85;7.50;;;;;;;13.73;100.00;101293.56;5271274;28;20059;-67
2023/05/01 07:46:18;;;;;;;12.30;7.55;;;;;;;13.83;100.00;101294.47;5259465;28;21776;-68
2023/05/01 07:48:50;;;;;;;11.88;7.20;;;;;;;13.88;100.00;101284.22;5271948;28;20024;-67
2023/05/01 07:51:22;;;;;;;11.38;7.50;;;;;;;14.00;100.00;101289.53;5271640;28;20039;-67
2023/05/01 07:53:54;;;;;;;9.50;6.97;;;;;;;14.08;100.00;101290.59;5269489;28;20036;-67
2023/05/01 07:56:26;;;;;;;10.02;7.50;;;;;;;14.17;100.00;101290.78;5271949;28;20119;-67
2023/05/01 07:58:57;;;;;;;10.85;8.05;;;;;;;14.20;100.00;101291.38;5272389;28;20120;-67
2023/05/01 08:01:28;;;;;;;10.07;7.47;;;;;;;14.26;100.00;101284.66;5270185;28;20045;-67
2023/05/01 08:04:00;;;;;;;13.07;8.07;;;;;;;14.34;100.00;101292.88;5271794;28;20052;-66
2023/05/01 08:06:32;;;;;;;13.02;8.43;;;;;;;14.32;100.00;101289.47;5270557;28;20097;-67
2023/05/01 08:09:03;;;;;;;17.05;8.65;;;;;;;14.40;100.00;101287.03;5267087;28;20029;-67
2023/05/01 08:11:35;;;;;;;11.93;8.00;;;;;;;14.48;100.00;101281.84;5274062;28;20383;-66
2023/05/01 08:14:06;;;;;;;13.57;8.27;;;;;;;14.58;100.00;101281.91;5301421;28;20028;-67
2023/05/01 08:16:37;;;;;;;13.00;8.20;;;;;;;14.76;100.00;101282.16;5267842;28;20020;-67
2023/05/01 08:19:09;;;;;;;11.93;8.02;;;;;;;14.77;100.00;101288.38;5266580;28;20048;-67
2023/05/01 08:21:40;;;;;;;13.75;7.88;;;;;;;14.81;100.00;101279.06;5264115;28;20596;-67
2023/05/01 08:24:11;;;;;;;15.48;8.40;;;;;;;14.91;100.00;101282.66;5273092;28;20034;-67
2023/05/01 08:26:43;;;;;;;15.68;8.43;;;;;;;14.89;100.00;101279.25;5272270;28;20475;-67
2023/05/01 08:29:14;;;;;;;16.85;7.68;;;;;;;14.96;100.00;101277.72;5268395;28;20449;-67
2023/05/01 08:31:46;;;;;;;12.57;8.05;;;;;;;15.03;100.00;101275.34;5271907;28;20029;-67
2023/05/01 08:34:17;;;;;;;12.75;7.90;;;;;;;15.07;100.00;101282.13;5272717;28;20414;-67
2023/05/01 08:36:49;;;;;;;12.50;7.97;;;;;;;15.18;100.00;101270.44;5269477;28;20024;-68
2023/05/01 08:39:20;;;;;;;12.93;7.75;;;;;;;15.34;100.00;101278.84;5265756;28;20040;-67
2023/05/01 08:41:52;;;;;;;10.30;7.07;;;;;;;15.39;100.00;101276.56;5272159;28;20032;-67
2023/05/01 08:44:27;;;;;;;9.30;6.53;;;;;;;15.46;100.00;101282.25;5268625;28;20406;-67
2023/05/01 08:47:15;;;;;;;10.95;7.03;;;;;;;15.59;100.00;101279.28;5272713;28;20116;-67
2023/05/01 08:49:50;;;;;;;8.68;6.68;;;;;;;15.66;100.00;101283.13;5261727;28;20029;-67
2023/05/01 08:52:22;;;;;;;9.00;6.68;;;;;;;15.72;100.00;101284.41;5274163;28;20470;-68
2023/05/01 08:54:56;;;;;;;9.27;6.85;;;;;;;15.79;100.00;101282.91;5269679;28;20394;-67
2023/05/01 08:57:29;;;;;;;12.75;7.85;;;;;;;15.82;100.00;101287.97;5269702;28;20021;-67
2023/05/01 09:00:03;;;;;;;12.98;7.45;;;;;;;15.82;100.00;101285.28;5262315;28;20066;-67
2023/05/01 09:02:36;;;;;;;9.43;6.88;;;;;;;15.81;100.00;101281.75;5266431;28;20029;-68
2023/05/01 09:05:08;;;;;;;10.43;7.30;;;;;;;15.87;100.00;101280.34;5262318;28;20028;-67
2023/05/01 09:07:41;;;;;;;9.70;7.40;;;;;;;15.98;100.00;101282.91;5268844;28;20055;-67
2023/05/01 09:10:15;;;;;;;10.00;7.38;;;;;;;15.92;100.00;101288.84;5267715;28;20097;-67
2023/05/01 09:12:50;;;;;;;12.50;7.65;;;;;;;15.98;100.00;101288.28;5263909;28;20028;-67
2023/05/01 09:15:27;;;;;;;9.73;7.30;;;;;;;15.92;100.00;101283.47;5270602;28;20029;-67
2023/05/01 09:18:00;;;;;;;11.85;8.75;;;;;;;15.95;100.00;101283.16;5267633;28;20369;-68
2023/05/01 09:20:32;;;;;;;12.95;7.82;;;;;;;16.02;100.00;101288.84;5268658;28;20032;-68
2023/05/01 09:23:04;;;;;;;11.00;7.20;;;;;;;16.02;100.00;101286.16;5265940;28;20037;-68
2023/05/01 09:25:35;;;;;;;9.70;7.40;;;;;;;16.10;100.00;101291.66;5269238;28;20097;-68
2023/05/01 09:28:06;;;;;;;11.15;7.10;;;;;;;16.13;100.00;101288.69;5273294;28;20124;-68
2023/05/01 09:30:38;;;;;;;10.85;7.18;;;;;;;16.12;100.00;101292.38;5272612;28;20024;-68
2023/05/01 09:33:15;;;;;;;11.70;7.35;;;;;;;16.16;100.00;101291.09;5261024;28;21139;-68
2023/05/01 09:35:54;;;;;;;10.68;7.53;;;;;;;16.19;100.00;101288.13;5268363;28;20060;-68
2023/05/01 09:38:28;;;;;;;9.10;6.53;;;;;;;16.36;100.00;101283.84;5256991;28;20025;-68
2023/05/01 09:41:04;;;;;;;8.90;7.03;;;;;;;16.44;100.00;101289.34;5264725;28;20025;-67
2023/05/01 09:43:35;;;;;;;11.50;7.10;;;;;;;16.50;100.00;101300.56;5261101;28;20301;-68
2023/05/01 09:46:10;;;;;;;9.23;6.75;;;;;;;16.62;100.00;101288.59;5271544;28;20491;-68
2023/05/01 09:48:57;;;;;;;10.95;6.65;;;;;;;16.84;100.00;101290.97;5266154;28;20341;-67
2023/05/01 09:51:30;;;;;;;10.88;7.35;;;;;;;16.98;100.00;101286.94;5271411;28;20253;-67
2023/05/01 09:54:03;;;;;;;11.15;7.80;;;;;;;17.08;100.00;101286.06;5271366;28;20042;-68
2023/05/01 09:56:46;;;;;;;10.13;7.68;;;;;;;17.22;100.00;101285.56;5272065;28;20028;-68
2023/05/01 09:59:19;;;;;;;12.23;7.63;;;;;;;17.33;100.00;101289.91;5273741;28;20040;-68
2023/05/01 10:01:51;;;;;;;11.82;7.35;;;;;;;17.46;100.00;101298.50;5268788;28;20128;-68
2023/05/01 10:04:29;;;;;;;11.52;7.10;;;;;;;17.44;100.00;101293.25;5261863;28;20048;-68
2023/05/01 10:07:12;;;;;;;9.90;7.25;;;;;;;17.49;100.00;101289.22;5268188;28;20072;-68
2023/05/01 10:09:43;;;;;;;10.43;6.90;;;;;;;17.53;100.00;101288.78;5272612;28;20056;-68
2023/05/01 10:12:23;;;;;;;10.63;7.32;;;;;;;17.56;100.00;101293.03;5270565;28;20062;-68
2023/05/01 10:14:56;;;;;;;9.35;7.07;;;;;;;17.54;100.00;101285.06;5274042;28;20161;-68
2023/05/01 10:17:28;;;;;;;11.95;7.07;;;;;;;17.58;100.00;101294.56;5273554;28;20142;-67
2023/05/01 10:19:59;;;;;;;9.75;7.00;;;;;;;17.55;100.00;101288.66;5272620;28;20080;-68
2023/05/01 10:22:31;;;;;;;10.95;7.47;;;;;;;17.71;100.00;101296.91;5277347;28;20035;-67
2023/05/01 10:25:06;;;;;;;12.60;7.85;;;;;;;17.64;100.00;101303.91;5267233;28;20390;-69
2023/05/01 10:27:41;;;;;;;10.15;7.35;;;;;;;17.62;100.00;101292.41;5272568;28;20029;-67
2023/05/01 10:30:13;;;;;;;12.02;7.80;;;;;;;17.64;100.00;101295.81;5274247;28;20029;-68
2023/05/01 10:32:46;;;;;;;10.77;7.20;;;;;;;17.75;100.00;101294.75;5270373;28;20112;-67
2023/05/01 10:35:23;;;;;;;10.35;7.32;;;;;;;17.86;100.00;101293.72;5269629;28;20028;-68
2023/05/01 10:38:00;;;;;;;10.57;7.53;;;;;;;17.78;100.00;101298.00;5268994;28;20029;-67
2023/05/01 10:40:38;;;;;;;11.27;7.03;;;;;;;17.68;100.00;101299.06;5273106;28;20119;-67
2023/05/01 10:43:24;;;;;;;13.55;6.82;;;;;;;17.64;100.00;101306.59;5273430;28;20034;-68
2023/05/01 10:46:18;;;;;;;10.98;7.40;;;;;;;17.60;100.00;101306.09;5274677;28;20088;-68
2023/05/01 10:48:49;;;;;;;11.25;6.97;;;;;;;17.59;100.00;101306.22;5273959;28;20024;-68
2023/05/01 10:51:26;;;;;;;9.60;6.95;;;;;;;17.55;100.00;101307.53;5266232;28;20039;-68
2023/05/01 10:54:12;;;;;;;12.48;7.20;;;;;;;17.50;100.00;101316.06;5265593;28;20020;-67
2023/05/01 10:56:44;;;;;;;11.73;7.47;;;;;;;17.42;100.00;101316.81;5272798;28;20032;-68
2023/05/01 10:59:15;;;;;;;11.40;6.70;;;;;;;17.53;100.00;101310.38;5268865;28;20110;-67
2023/05/01 11:01:50;;;;;;;13.77;7.18;;;;;;;17.53;100.00;101309.53;5273344;28;20038;-68
2023/05/01 11:04:21;;;;;;;14.82;8.13;;;;;;;17.52;100.00;101305.13;5303820;27;20055;-67
2023/05/01 11:07:06;;;;;;;10.13;7.40;;;;;;;17.51;100.00;101306.13;5309224;27;20054;-68
2023/05/01 11:09:54;;;;;;;12.20;7.22;;;;;;;17.58;100.00;101312.59;5316557;27;20039;-67
2023/05/01 11:12:47;;;;;;;10.90;7.13;;;;;;;17.63;100.00;101310.31;5311410;27;20031;-67
2023/05/01 11:15:32;;;;;;;10.70;7.55;;;;;;;17.66;100.00;101303.75;5309906;27;20126;-68
2023/05/01 11:18:05;;;;;;;9.38;6.95;;;;;;;17.55;100.00;101305.69;5314770;28;20484;-67
2023/05/01 11:20:36;;;;;;;11.50;7.45;;;;;;;17.58;100.00;101307.22;5313467;27;20032;-67
2023/05/01 11:23:16;;;;;;;13.57;7.63;;;;;;;17.58;100.00;101313.44;5306081;27;20057;-67
2023/05/01 11:25:48;;;;;;;13.00;7.53;;;;;;;17.51;100.00;101306.13;5311151;27;20035;-67
2023/05/01 11:28:20;;;;;;;11.65;7.40;;;;;;;17.54;100.00;101301.28;5312995;27;20023;-67
2023/05/01 11:30:52;;;;;;;11.95;7.90;;;;;;;17.57;100.00;101300.97;5310255;27;20052;-66
2023/05/01 11:33:24;;;;;;;9.57;7.10;;;;;;;17.58;100.00;101304.50;5306402;27;20031;-68
2023/05/01 11:35:58;;;;;;;13.05;7.53;;;;;;;17.68;100.00;101308.03;5314341;28;20116;-67
2023/05/01 11:38:30;;;;;;;10.68;7.45;;;;;;;17.74;100.00;101307.41;5325097;27;20086;-66
2023/05/01 11:41:03;;;;;;;9.50;6.88;;;;;;;17.79;100.00;101306.94;5312271;27;20439;-66